createdAt,value
2019-03-05T00:01:54.173Z,67.18
2019-03-05T00:04:23.687Z,67.22
2019-03-05T00:06:53.183Z,66.39
2019-03-05T00:09:22.894Z,67.17
2019-03-05T00:11:52.437Z,67.57
2019-03-05T00:14:25.146Z,67.23
2019-03-05T00:16:54.692Z,68.93
2019-03-05T00:19:24.221Z,69.02
2019-03-05T00:21:53.991Z,69.54
2019-03-05T00:24:44.242Z,71.08
2019-03-05T00:27:13.706Z,71.89
2019-03-05T00:30:16.893Z,71.62
2019-03-05T00:32:48.471Z,71.40
2019-03-05T00:35:30.343Z,71.73
2019-03-05T00:38:27.512Z,71.21
2019-03-05T00:41:11.648Z,72.13
2019-03-05T00:44:03.646Z,72.13
2019-03-05T00:46:49.568Z,72.44
2019-03-05T00:49:58.403Z,72.99
2019-03-05T00:53:13.012Z,72.82
2019-03-05T00:56:10.014Z,73.43
2019-03-05T00:58:54.059Z,73.51
2019-03-05T01:02:11.082Z,74.22
2019-03-05T01:05:17.856Z,73.70
2019-03-05T01:07:47.366Z,74.75
2019-03-05T01:10:16.949Z,74.60
2019-03-05T01:12:46.518Z,74.35
2019-03-05T01:15:16.499Z,74.65
2019-03-05T01:17:45.999Z,75.05
2019-03-05T01:20:15.497Z,74.77
2019-03-05T01:22:44.984Z,73.91
2019-03-05T01:25:27.806Z,73.54
2019-03-05T01:27:57.398Z,73.10
2019-03-05T01:30:36.009Z,74.21
2019-03-05T01:33:10.160Z,73.96
2019-03-05T01:35:45.001Z,73.33
2019-03-05T01:38:14.508Z,72.64
2019-03-05T01:40:48.998Z,72.66
2019-03-05T01:43:18.573Z,74.03
2019-03-05T01:45:48.080Z,73.00
2019-03-05T01:48:17.583Z,72.35
2019-03-05T01:50:47.088Z,72.11
2019-03-05T01:53:16.664Z,71.63
2019-03-05T01:55:46.158Z,72.76
2019-03-05T01:58:15.678Z,73.76
2019-03-05T02:00:45.249Z,72.52
2019-03-05T02:03:14.869Z,72.92
2019-03-05T02:05:44.364Z,72.32
2019-03-05T02:08:13.966Z,72.26
2019-03-05T02:10:43.695Z,72.34
2019-03-05T02:13:13.284Z,72.49
2019-03-05T02:15:42.783Z,73.06
2019-03-05T02:18:18.359Z,72.16
2019-03-05T02:20:48.178Z,72.15
2019-03-05T02:23:38.068Z,72.36
2019-03-05T02:26:46.318Z,72.23
2019-03-05T02:29:54.268Z,71.60
2019-03-05T02:32:41.710Z,71.56
2019-03-05T02:35:20.104Z,71.31
2019-03-05T02:38:05.702Z,70.89
2019-03-05T02:41:02.440Z,71.50
2019-03-05T02:43:44.147Z,71.15
2019-03-05T02:46:24.169Z,71.66
2019-03-05T02:49:19.564Z,70.98
2019-03-05T02:52:24.140Z,70.95
2019-03-05T02:55:23.424Z,70.34
2019-03-05T02:57:51.731Z,70.13
2019-03-05T03:00:32.613Z,70.89
2019-03-05T03:03:08.534Z,70.12
2019-03-05T03:05:56.126Z,69.93
2019-03-05T03:08:25.634Z,70.51
2019-03-05T03:10:55.201Z,69.79
2019-03-05T03:13:24.706Z,70.21
2019-03-05T03:15:54.207Z,69.03
2019-03-05T03:18:23.725Z,68.85
2019-03-05T03:20:53.250Z,68.62
2019-03-05T03:23:22.747Z,69.13
2019-03-05T03:25:52.317Z,69.49
2019-03-05T03:28:21.819Z,68.41
2019-03-05T03:30:51.367Z,68.68
2019-03-05T03:33:20.945Z,69.05
2019-03-05T03:35:50.444Z,68.71
2019-03-05T03:38:19.958Z,68.21
2019-03-05T03:40:49.456Z,67.83
2019-03-05T03:43:18.961Z,67.69
2019-03-05T03:45:48.489Z,67.61
2019-03-05T03:48:17.999Z,67.24
2019-03-05T03:50:47.509Z,67.15
2019-03-05T03:53:17.008Z,67.18
2019-03-05T03:55:46.517Z,67.46
2019-03-05T03:58:16.102Z,66.71
2019-03-05T04:00:45.621Z,66.70
2019-03-05T04:03:15.181Z,67.27
2019-03-05T04:05:44.686Z,67.47
2019-03-05T04:08:14.214Z,67.92
2019-03-05T04:10:43.711Z,68.45
2019-03-05T04:13:13.231Z,68.65
2019-03-05T04:15:42.815Z,68.62
2019-03-05T04:18:12.323Z,69.13
2019-03-05T04:20:45.885Z,69.94
2019-03-05T04:23:15.471Z,70.12
2019-03-05T04:25:45.145Z,70.36
2019-03-05T04:28:14.694Z,70.56
2019-03-05T04:30:44.263Z,69.97
2019-03-05T04:33:13.789Z,69.61
2019-03-05T04:35:43.299Z,68.87
2019-03-05T04:38:12.898Z,68.12
2019-03-05T04:40:42.441Z,68.07
2019-03-05T04:43:12.940Z,67.98
2019-03-05T04:45:50.834Z,66.85
2019-03-05T04:48:21.719Z,66.83
2019-03-05T04:51:00.171Z,67.28
2019-03-05T04:53:29.688Z,66.58
2019-03-05T04:55:59.287Z,66.24
2019-03-05T04:58:28.802Z,66.75
2019-03-05T05:00:58.327Z,66.83
2019-03-05T05:03:27.868Z,66.17
2019-03-05T05:05:57.386Z,67.38
2019-03-05T05:08:26.904Z,66.63
2019-03-05T05:10:57.469Z,67.16
2019-03-05T05:13:26.980Z,66.75
2019-03-05T05:15:56.501Z,66.11
2019-03-05T05:18:26.028Z,65.78
2019-03-05T05:20:55.563Z,66.01
2019-03-05T05:23:25.056Z,65.92
2019-03-05T05:25:54.721Z,65.52
2019-03-05T05:28:24.158Z,66.60
2019-03-05T05:30:53.672Z,67.20
2019-03-05T05:33:23.195Z,67.28
2019-03-05T05:35:52.758Z,67.07
2019-03-05T05:38:22.275Z,67.01
2019-03-05T05:40:51.806Z,67.53
2019-03-05T05:43:24.062Z,66.78
2019-03-05T05:45:53.876Z,67.76
2019-03-05T05:48:23.440Z,67.58
2019-03-05T05:50:52.960Z,67.46
2019-03-05T05:53:22.587Z,67.84
2019-03-05T05:55:52.097Z,67.78
2019-03-05T05:58:21.635Z,67.50
2019-03-05T06:00:53.357Z,68.80
2019-03-05T06:03:22.873Z,67.75
2019-03-05T06:05:52.391Z,68.23
2019-03-05T06:08:21.902Z,67.23
2019-03-05T06:10:52.919Z,68.00
2019-03-05T06:13:22.756Z,67.44
2019-03-05T06:15:52.366Z,67.64
2019-03-05T06:18:21.869Z,68.07
2019-03-05T06:20:51.456Z,67.43
2019-03-05T06:23:20.979Z,67.02
2019-03-05T06:25:50.512Z,68.12
2019-03-05T06:28:20.976Z,68.12
2019-03-05T06:30:50.495Z,67.61
2019-03-05T06:33:20.038Z,67.32
2019-03-05T06:35:49.566Z,67.42
2019-03-05T06:38:19.095Z,67.74
2019-03-05T06:40:48.629Z,67.44
2019-03-05T06:43:18.130Z,68.00
2019-03-05T06:45:48.019Z,67.11
2019-03-05T06:48:18.575Z,66.75
2019-03-05T06:50:48.279Z,67.08
2019-03-05T06:53:19.171Z,66.40
2019-03-05T06:55:48.704Z,66.54
2019-03-05T06:58:18.250Z,66.24
2019-03-05T07:00:47.766Z,66.85
2019-03-05T07:03:17.319Z,66.21
2019-03-05T07:06:23.202Z,66.21
2019-03-05T07:09:12.993Z,66.37
2019-03-05T07:12:19.647Z,65.88
2019-03-05T07:15:35.803Z,66.35
2019-03-05T07:18:16.122Z,65.82
2019-03-05T07:21:33.283Z,65.58
2019-03-05T07:24:40.866Z,65.68
2019-03-05T07:27:10.819Z,65.37
2019-03-05T07:29:40.992Z,66.71
2019-03-05T07:32:10.524Z,65.88
2019-03-05T07:34:42.467Z,65.60
2019-03-05T07:37:12.820Z,65.50
2019-03-05T07:39:42.336Z,66.23
2019-03-05T07:42:11.936Z,65.57
2019-03-05T07:44:41.457Z,65.32
2019-03-05T07:47:10.981Z,65.61
2019-03-05T07:49:44.006Z,65.82
2019-03-05T07:52:11.715Z,64.87
2019-03-05T07:54:41.217Z,64.47
2019-03-05T07:57:10.742Z,64.83
2019-03-05T07:59:40.266Z,64.64
2019-03-05T08:02:09.953Z,64.77
2019-03-05T08:04:39.476Z,64.88
2019-03-05T08:07:08.985Z,64.71
2019-03-05T08:09:39.187Z,64.58
2019-03-05T08:12:32.093Z,63.88
2019-03-05T08:15:08.603Z,63.29
2019-03-05T08:17:38.121Z,63.86
2019-03-05T08:20:09.378Z,63.77
2019-03-05T08:22:38.889Z,63.77
2019-03-05T08:25:09.733Z,63.40
2019-03-05T08:27:39.238Z,64.46
2019-03-05T08:30:14.528Z,65.03
2019-03-05T08:32:42.882Z,65.12
2019-03-05T08:35:12.403Z,65.73
2019-03-05T08:37:41.927Z,64.96
2019-03-05T08:40:12.088Z,64.44
2019-03-05T08:42:41.613Z,65.45
2019-03-05T08:45:12.625Z,65.18
2019-03-05T08:47:42.239Z,65.18
2019-03-05T08:50:12.119Z,64.72
2019-03-05T08:52:41.633Z,64.98
2019-03-05T08:55:11.175Z,65.04
2019-03-05T08:57:40.726Z,65.06
2019-03-05T09:00:13.191Z,64.25
2019-03-05T09:02:48.683Z,64.67
2019-03-05T09:05:14.931Z,64.18
2019-03-05T09:07:44.682Z,65.04
2019-03-05T09:10:15.379Z,64.44
2019-03-05T09:12:44.895Z,64.36
2019-03-05T09:15:16.030Z,63.82
2019-03-05T09:17:45.707Z,64.35
2019-03-05T09:20:16.125Z,64.39
2019-03-05T09:22:45.684Z,63.92
2019-03-05T09:25:15.295Z,64.34
2019-03-05T09:27:45.003Z,64.16
2019-03-05T09:30:16.945Z,63.85
2019-03-05T09:32:46.455Z,64.73
2019-03-05T09:35:16.152Z,64.80
2019-03-05T09:37:45.759Z,64.12
2019-03-05T09:40:17.941Z,64.45
2019-03-05T09:42:47.462Z,63.77
2019-03-05T09:45:18.021Z,64.54
2019-03-05T09:47:47.605Z,63.94
2019-03-05T09:50:17.537Z,63.37
2019-03-05T09:52:54.760Z,62.44
2019-03-05T09:55:19.561Z,62.95
2019-03-05T09:57:53.363Z,62.45
2019-03-05T10:00:23.472Z,62.01
2019-03-05T10:02:53.253Z,61.58
2019-03-05T10:05:22.843Z,61.37
2019-03-05T10:07:52.316Z,61.59
2019-03-05T10:10:23.291Z,61.54
2019-03-05T10:12:52.969Z,61.65
2019-03-05T10:15:23.637Z,61.19
2019-03-05T10:17:53.320Z,61.28
2019-03-05T10:20:22.978Z,61.17
2019-03-05T10:22:52.625Z,60.51
2019-03-05T10:25:22.574Z,60.30
2019-03-05T10:27:52.192Z,59.76
2019-03-05T10:30:25.335Z,59.96
2019-03-05T10:32:55.352Z,60.98
2019-03-05T10:35:26.189Z,61.40
2019-03-05T10:37:57.021Z,61.55
2019-03-05T10:40:29.376Z,62.03
2019-03-05T10:43:08.100Z,62.40
2019-03-05T10:45:30.192Z,62.80
2019-03-05T10:47:59.820Z,63.26
2019-03-05T10:50:29.538Z,62.69
2019-03-05T10:53:00.323Z,61.76
2019-03-05T10:55:29.847Z,63.94
2019-03-05T10:57:59.370Z,63.94
2019-03-05T11:00:30.975Z,65.22
2019-03-05T11:03:00.573Z,67.24
2019-03-05T11:05:32.450Z,66.95
2019-03-05T11:08:03.106Z,67.18
2019-03-05T11:10:32.805Z,67.25
2019-03-05T11:13:02.521Z,68.41
2019-03-05T11:15:32.334Z,68.61
2019-03-05T11:18:02.221Z,71.14
2019-03-05T11:20:31.747Z,71.45
2019-03-05T11:23:01.244Z,71.26
2019-03-05T11:25:30.839Z,68.91
2019-03-05T11:28:00.351Z,70.51
2019-03-05T11:30:36.238Z,68.04
2019-03-05T11:33:02.107Z,68.36
2019-03-05T11:35:31.993Z,67.14
2019-03-05T11:38:01.509Z,66.95
2019-03-05T11:40:31.024Z,65.24
2019-03-05T11:43:13.850Z,65.88
2019-03-05T11:45:44.082Z,66.31
2019-03-05T11:48:14.485Z,66.99
2019-03-05T11:50:44.507Z,67.47
2019-03-05T11:53:14.091Z,67.87
2019-03-05T11:55:43.708Z,67.32
2019-03-05T11:58:13.215Z,66.39
2019-03-05T12:00:50.902Z,67.38
2019-03-05T12:03:20.414Z,65.94
2019-03-05T12:05:49.954Z,64.64
2019-03-05T12:08:19.461Z,64.43
2019-03-05T12:10:49.052Z,64.64
2019-03-05T12:13:19.935Z,64.06
2019-03-05T12:15:49.536Z,63.76
2019-03-05T12:18:19.067Z,63.58
2019-03-05T12:20:48.607Z,63.60
2019-03-05T12:23:21.621Z,63.36
2019-03-05T12:25:51.319Z,63.21
2019-03-05T12:28:20.845Z,62.80
2019-03-05T12:30:50.441Z,61.80
2019-03-05T12:33:19.964Z,61.75
2019-03-05T12:35:49.470Z,61.12
2019-03-05T12:38:18.992Z,60.86
2019-03-05T12:40:49.457Z,62.26
2019-03-05T12:43:19.000Z,62.17
2019-03-05T12:45:48.496Z,61.56
2019-03-05T12:48:18.005Z,61.67
2019-03-05T12:50:47.501Z,61.32
2019-03-05T12:53:17.366Z,61.53
2019-03-05T12:55:46.942Z,61.13
2019-03-05T12:58:16.442Z,60.83
2019-03-05T13:00:45.953Z,60.41
2019-03-05T13:03:15.461Z,60.68
2019-03-05T13:05:44.960Z,59.97
2019-03-05T13:08:14.495Z,59.54
2019-03-05T13:10:45.279Z,60.04
2019-03-05T13:13:15.366Z,60.25
2019-03-05T13:15:45.086Z,60.25
2019-03-05T13:18:15.567Z,59.49
2019-03-05T13:20:45.079Z,59.89
2019-03-05T13:23:14.615Z,60.13
2019-03-05T13:25:44.149Z,59.25
2019-03-05T13:28:13.702Z,59.46
2019-03-05T13:30:43.219Z,59.12
2019-03-05T13:33:12.817Z,58.37
2019-03-05T13:35:42.402Z,58.04
2019-03-05T13:38:11.968Z,57.72
2019-03-05T13:40:41.487Z,56.96
2019-03-05T13:43:11.101Z,57.53
2019-03-05T13:45:43.905Z,57.61
2019-03-05T13:49:02.576Z,57.64
2019-03-05T13:52:00.961Z,58.15
2019-03-05T13:54:57.579Z,57.87
2019-03-05T13:58:02.277Z,57.21
2019-03-05T14:00:31.798Z,57.13
2019-03-05T14:03:21.085Z,55.98
2019-03-05T14:06:19.667Z,56.48
2019-03-05T14:09:10.872Z,57.19
2019-03-05T14:11:40.421Z,57.09
2019-03-05T14:14:15.843Z,56.56
2019-03-05T14:16:45.921Z,55.93
2019-03-05T14:19:15.481Z,56.09
2019-03-05T14:21:45.074Z,56.01
2019-03-05T14:24:14.722Z,54.99
2019-03-05T14:26:44.240Z,55.69
2019-03-05T14:29:13.793Z,55.40
2019-03-05T14:31:43.611Z,54.95
2019-03-05T14:34:13.352Z,55.29
2019-03-05T14:36:42.891Z,54.67
2019-03-05T14:39:31.838Z,55.68
2019-03-05T14:42:01.912Z,55.37
2019-03-05T14:44:39.739Z,54.00
2019-03-05T14:47:03.782Z,54.81
2019-03-05T14:49:33.275Z,54.08
2019-03-05T14:52:02.924Z,53.48
2019-03-05T14:54:32.409Z,51.37
2019-03-05T14:57:01.962Z,51.15
2019-03-05T14:59:31.468Z,51.41
2019-03-05T15:02:02.325Z,50.48
2019-03-05T15:04:32.069Z,50.94
2019-03-05T15:07:04.545Z,50.65
2019-03-05T15:09:32.816Z,50.06
2019-03-05T15:12:02.319Z,50.21
2019-03-05T15:14:31.854Z,48.71
2019-03-05T15:17:01.402Z,49.03
2019-03-05T15:19:30.988Z,48.97
2019-03-05T15:22:00.503Z,48.63
2019-03-05T15:24:30.116Z,48.90
2019-03-05T15:27:00.003Z,47.73
2019-03-05T15:29:29.528Z,48.00
2019-03-05T15:31:59.064Z,48.58
2019-03-05T15:34:28.704Z,48.12
2019-03-05T15:36:59.278Z,48.60
2019-03-05T15:39:28.869Z,48.34
2019-03-05T15:41:58.433Z,48.55
2019-03-05T15:44:27.973Z,49.04
2019-03-05T15:46:57.552Z,48.91
2019-03-05T15:49:27.142Z,48.37
2019-03-05T15:51:56.666Z,47.81
2019-03-05T15:54:26.134Z,47.83
2019-03-05T15:56:55.645Z,48.03
2019-03-05T15:59:25.177Z,48.02
2019-03-05T16:01:54.678Z,48.18
2019-03-05T16:04:24.280Z,48.06
2019-03-05T16:06:53.801Z,48.21
2019-03-05T16:09:23.360Z,48.09
2019-03-05T16:11:52.901Z,48.05
2019-03-05T16:14:22.507Z,48.22
2019-03-05T16:16:52.842Z,48.50
2019-03-05T16:19:23.534Z,48.18
2019-03-05T16:21:53.052Z,47.85
2019-03-05T16:24:23.081Z,48.23
2019-03-05T16:26:56.811Z,48.21
2019-03-05T16:29:24.114Z,47.96
2019-03-05T16:32:00.350Z,47.73
2019-03-05T16:34:58.076Z,47.73
2019-03-05T16:37:43.778Z,47.96
2019-03-05T16:40:40.945Z,48.22
2019-03-05T16:43:47.985Z,48.48
2019-03-05T16:46:44.129Z,48.42
2019-03-05T16:49:48.698Z,48.62
2019-03-05T16:52:35.920Z,48.60
2019-03-05T16:55:20.208Z,48.30
2019-03-05T16:58:11.733Z,48.37
2019-03-05T17:01:00.650Z,48.54
2019-03-05T17:03:43.305Z,48.69
2019-03-05T17:06:34.419Z,48.96
2019-03-05T17:09:20.949Z,49.52
2019-03-05T17:11:54.845Z,49.96
2019-03-05T17:14:24.366Z,50.05
2019-03-05T17:16:53.917Z,50.35
2019-03-05T17:19:23.444Z,56.35
2019-03-05T17:21:53.233Z,49.19
2019-03-05T17:24:23.925Z,48.84
2019-03-05T17:26:56.625Z,48.79
2019-03-05T17:29:25.706Z,49.96
2019-03-05T17:31:55.249Z,48.56
2019-03-05T17:34:24.973Z,49.44
2019-03-05T17:36:54.526Z,49.87
2019-03-05T17:39:25.831Z,50.32
2019-03-05T17:41:55.355Z,50.55
2019-03-05T17:44:24.960Z,50.90
2019-03-05T17:46:54.564Z,51.28
2019-03-05T17:49:24.052Z,51.32
2019-03-05T17:51:53.576Z,51.64
2019-03-05T17:54:23.110Z,51.60
2019-03-05T17:56:53.008Z,51.91
2019-03-05T17:59:22.540Z,52.16
2019-03-05T18:01:52.091Z,52.12
2019-03-05T18:04:22.171Z,52.24
2019-03-05T18:06:51.690Z,52.22
2019-03-05T18:09:21.370Z,52.58
2019-03-05T18:11:50.908Z,52.82
2019-03-05T18:14:20.496Z,53.00
2019-03-05T18:16:50.037Z,53.57
2019-03-05T18:19:19.574Z,53.32
2019-03-05T18:21:49.099Z,53.69
2019-03-05T18:24:18.628Z,53.96
2019-03-05T18:26:48.160Z,53.94
2019-03-05T18:29:17.759Z,53.81
2019-03-05T18:31:47.292Z,53.60
2019-03-05T18:34:16.881Z,53.98
2019-03-05T18:36:46.408Z,54.17
2019-03-05T18:39:16.320Z,54.55
2019-03-05T18:41:46.051Z,54.48
2019-03-05T18:44:15.658Z,54.58
2019-03-05T18:46:46.155Z,54.45
2019-03-05T18:49:15.683Z,54.55
2019-03-05T18:51:45.204Z,54.52
2019-03-05T18:54:14.749Z,54.38
2019-03-05T18:56:44.300Z,54.19
2019-03-05T18:59:13.908Z,53.96
2019-03-05T19:01:44.453Z,53.81
2019-03-05T19:04:13.979Z,54.55
2019-03-05T19:06:43.512Z,54.26
2019-03-05T19:09:13.356Z,54.34
2019-03-05T19:11:43.146Z,54.44
2019-03-05T19:14:12.675Z,54.83
2019-03-05T19:16:42.220Z,54.45
2019-03-05T19:19:11.926Z,54.15
2019-03-05T19:21:41.460Z,54.69
2019-03-05T19:24:11.969Z,54.24
2019-03-05T19:26:41.507Z,54.45
2019-03-05T19:29:11.116Z,54.35
2019-03-05T19:31:41.667Z,54.29
2019-03-05T19:34:11.186Z,54.45
2019-03-05T19:36:40.736Z,54.31
2019-03-05T19:39:10.285Z,54.39
2019-03-05T19:41:41.452Z,54.26
2019-03-05T19:44:10.985Z,54.08
2019-03-05T19:46:40.537Z,54.78
2019-03-05T19:49:10.053Z,54.91
2019-03-05T19:51:39.589Z,54.76
2019-03-05T19:54:09.535Z,55.15
2019-03-05T19:56:41.481Z,55.17
2019-03-05T19:59:10.985Z,55.25
2019-03-05T20:01:45.756Z,55.16
2019-03-05T20:04:15.660Z,55.64
2019-03-05T20:06:45.183Z,55.94
2019-03-05T20:09:18.995Z,56.14
2019-03-05T20:11:48.523Z,56.50
2019-03-05T20:14:19.005Z,56.47
2019-03-05T20:16:50.029Z,56.41
2019-03-05T20:19:19.646Z,56.11
2019-03-05T20:21:49.181Z,56.06
2019-03-05T20:24:18.708Z,56.11
2019-03-05T20:26:48.481Z,55.90
2019-03-05T20:29:18.022Z,55.62
2019-03-05T20:31:47.639Z,55.46
2019-03-05T20:34:17.175Z,55.34
2019-03-05T20:36:46.772Z,55.63
2019-03-05T20:39:16.312Z,55.82
2019-03-05T20:41:46.234Z,55.79
2019-03-05T20:44:15.772Z,56.33
2019-03-05T20:46:45.311Z,56.47
2019-03-05T20:49:14.846Z,57.18
2019-03-05T20:51:44.383Z,57.38
2019-03-05T20:54:13.913Z,57.57
2019-03-05T20:56:43.506Z,57.53
2019-03-05T20:59:13.530Z,57.45
2019-03-05T21:01:43.116Z,57.44
2019-03-05T21:04:12.620Z,57.06
2019-03-05T21:06:42.155Z,57.15
2019-03-05T21:09:21.145Z,57.04
2019-03-05T21:11:50.672Z,56.75
2019-03-05T21:14:20.224Z,56.52
2019-03-05T21:16:49.734Z,56.45
2019-03-05T21:19:19.277Z,55.92
2019-03-05T21:21:48.821Z,55.97
2019-03-05T21:24:30.607Z,56.37
2019-03-05T21:27:00.137Z,56.82
2019-03-05T21:29:29.684Z,57.67
2019-03-05T21:31:59.824Z,57.35
2019-03-05T21:34:29.377Z,57.66
2019-03-05T21:36:58.912Z,58.05
2019-03-05T21:39:28.452Z,58.48
2019-03-05T21:41:57.977Z,58.73
2019-03-05T21:44:27.577Z,58.51
2019-03-05T21:46:57.299Z,58.39
2019-03-05T21:49:26.826Z,58.55
2019-03-05T21:51:56.338Z,58.25
2019-03-05T21:54:25.869Z,58.30
2019-03-05T21:56:56.931Z,58.26
2019-03-05T21:59:26.508Z,58.12
2019-03-05T22:01:56.349Z,58.32
2019-03-05T22:04:25.892Z,58.64
2019-03-05T22:06:55.422Z,59.07
2019-03-05T22:09:24.970Z,59.29
2019-03-05T22:11:54.505Z,59.16
2019-03-05T22:14:24.025Z,59.31
2019-03-05T22:16:53.565Z,58.98
2019-03-05T22:19:23.167Z,59.33
2019-03-05T22:21:53.035Z,59.61
2019-03-05T22:24:23.537Z,59.81
2019-03-05T22:26:53.030Z,59.58
2019-03-05T22:29:22.547Z,60.23
2019-03-05T22:31:53.018Z,60.38
2019-03-05T22:34:23.023Z,60.51
2019-03-05T22:36:52.542Z,60.79
2019-03-05T22:39:22.072Z,60.74
2019-03-05T22:41:51.578Z,60.65
2019-03-05T22:44:21.106Z,60.66
2019-03-05T22:46:50.604Z,60.52
2019-03-05T22:49:20.107Z,60.39
2019-03-05T22:51:50.675Z,60.48
2019-03-05T22:54:20.199Z,60.55
2019-03-05T22:56:49.873Z,60.62
2019-03-05T22:59:19.398Z,60.44
2019-03-05T23:01:48.905Z,60.75
2019-03-05T23:04:26.842Z,60.84
2019-03-05T23:06:56.427Z,60.72
2019-03-05T23:09:26.708Z,60.48
2019-03-05T23:11:56.452Z,60.48
2019-03-05T23:14:25.979Z,60.46
2019-03-05T23:16:55.473Z,60.51
2019-03-05T23:19:25.449Z,60.62
2019-03-05T23:21:54.928Z,60.81
2019-03-05T23:24:24.513Z,60.58
2019-03-05T23:26:55.067Z,60.81
2019-03-05T23:29:44.362Z,61.44
2019-03-05T23:32:16.895Z,61.71
2019-03-05T23:34:46.477Z,62.54
2019-03-05T23:37:15.985Z,62.91
2019-03-05T23:39:45.490Z,62.84
2019-03-05T23:42:15.056Z,63.06
2019-03-05T23:44:44.576Z,63.11
2019-03-05T23:47:14.154Z,62.95
2019-03-05T23:49:43.665Z,62.74
2019-03-05T23:52:13.171Z,62.51
2019-03-05T23:54:42.695Z,62.77
2019-03-05T23:57:12.216Z,62.68
2019-03-05T23:59:41.736Z,62.98
